Time;durP1;ratioP1;P1;durP2;ratioP2;P2;SDS_P1;SDS_P2;PMS_P1;PMS_P2;Temp;Humidity;BMP_temperature;BMP_pressure;BME280_temperature;BME280_humidity;BME280_pressure;Samples;Min_cycle;Max_cycle;Signal;HPM_P1;HPM_P2
2023/02/17 00:00:57;;;;;;;10.32;1.10;;;17.50;24.60;;;;;;5082201;28;20046;-64
2023/02/17 00:03:24;;;;;;;11.60;0.93;;;17.50;25.00;;;;;;5086128;28;20062;-66
2023/02/17 00:05:51;;;;;;;3.05;0.90;;;17.40;24.60;;;;;;5082575;28;20440;-65
2023/02/17 00:08:18;;;;;;;10.18;1.10;;;17.30;24.60;;;;;;5088436;28;20053;-65
2023/02/17 00:10:44;;;;;;;13.68;1.40;;;17.10;24.70;;;;;;5080282;28;20517;-65
2023/02/17 00:13:11;;;;;;;9.65;1.00;;;17.00;24.80;;;;;;5085283;28;20047;-65
2023/02/17 00:15:38;;;;;;;7.25;1.10;;;17.00;25.10;;;;;;5080236;28;20450;-66
2023/02/17 00:18:05;;;;;;;8.95;1.13;;;16.80;25.20;;;;;;5086357;28;20066;-67
2023/02/17 00:20:31;;;;;;;11.15;1.30;;;16.80;25.30;;;;;;5068154;28;20052;-67
2023/02/17 00:22:57;;;;;;;43.22;3.63;;;16.80;25.50;;;;;;5087398;28;20067;-66
2023/02/17 00:25:24;;;;;;;7.75;1.33;;;16.80;25.80;;;;;;5082763;28;20052;-66
2023/02/17 00:27:50;;;;;;;1694.00;84.88;;;16.80;25.20;;;;;;5084130;28;20041;-66
2023/02/17 00:30:17;;;;;;;69.93;4.15;;;16.80;25.40;;;;;;5085299;28;20064;-65
2023/02/17 00:32:43;;;;;;;141.13;6.68;;;16.70;24.60;;;;;;5083946;28;20044;-68
2023/02/17 00:35:09;;;;;;;21.73;2.25;;;16.60;25.10;;;;;;5081406;28;20071;-64
2023/02/17 00:37:36;;;;;;;15.13;1.80;;;16.60;25.00;;;;;;5082670;28;20045;-66
2023/02/17 00:40:02;;;;;;;199.27;8.52;;;16.50;24.90;;;;;;5081821;28;20034;-64
2023/02/17 00:42:29;;;;;;;3.40;1.25;;;16.50;25.40;;;;;;5085225;28;20040;-67
2023/02/17 00:44:55;;;;;;;182.38;8.10;;;16.40;25.40;;;;;;5068196;28;20042;-67
2023/02/17 00:47:21;;;;;;;24.60;2.38;;;16.30;25.70;;;;;;5082568;28;20418;-67
2023/02/17 00:49:48;;;;;;;7.05;1.40;;;16.20;25.70;;;;;;5078805;28;20101;-67
2023/02/17 00:52:14;;;;;;;74.15;3.65;;;16.20;25.70;;;;;;5080723;28;20068;-71
2023/02/17 00:54:41;;;;;;;66.50;3.72;;;16.20;26.00;;;;;;5081639;28;20036;-65
2023/02/17 00:57:07;;;;;;;32.40;2.28;;;16.20;25.90;;;;;;5085678;28;20032;-67
2023/02/17 00:59:34;;;;;;;43.00;3.35;;;16.10;26.10;;;;;;5084538;28;20047;-67
2023/02/17 01:02:01;;;;;;;129.07;62.05;;;16.00;26.40;;;;;;5088516;28;20052;-66
2023/02/17 01:04:27;;;;;;;7.97;3.00;;;15.90;26.70;;;;;;5079663;28;20056;-66
2023/02/17 01:06:54;;;;;;;57.33;4.78;;;15.90;26.50;;;;;;5088659;28;20147;-66
2023/02/17 01:09:20;;;;;;;12.05;3.38;;;15.80;26.50;;;;;;5085343;28;20052;-65
2023/02/17 01:11:46;;;;;;;;;;;15.80;27.00;;;;;;5084883;28;20134;-69
2023/02/17 01:14:13;;;;;;;349.23;19.08;;;15.70;26.80;;;;;;5085594;28;19944;-68
2023/02/17 01:16:44;;;;;;;50.10;3.70;;;15.60;27.10;;;;;;5080451;28;20540;-65
2023/02/17 01:19:13;;;;;;;9.30;2.30;;;15.60;27.60;;;;;;5084177;28;20071;-66
2023/02/17 01:21:40;;;;;;;14.68;1.80;;;15.40;27.30;;;;;;5084273;28;20076;-65
2023/02/17 01:24:08;;;;;;;9.80;1.75;;;15.40;27.30;;;;;;5087445;28;21458;-65
2023/02/17 01:26:36;;;;;;;9.90;2.28;;;15.30;27.40;;;;;;5083168;28;20092;-68
2023/02/17 01:29:04;;;;;;;9.38;2.25;;;15.20;27.50;;;;;;5088055;28;20042;-63
2023/02/17 01:31:31;;;;;;;17.30;4.32;;;15.20;28.10;;;;;;5085939;28;20069;-65
2023/02/17 01:33:59;;;;;;;15.60;5.32;;;15.10;28.60;;;;;;5083162;28;20527;-65
2023/02/17 01:36:26;;;;;;;16.90;5.57;;;15.00;28.70;;;;;;5090506;28;20120;-66
2023/02/17 01:38:52;;;;;;;17.63;3.97;;;15.00;29.80;;;;;;5085156;28;20111;-64
2023/02/17 01:41:20;;;;;;;;;;;14.80;30.00;;;;;;5088292;28;20111;-67
2023/02/17 01:44:05;;;;;;;;;;;14.80;30.00;;;;;;5085004;28;19926;-65
2023/02/17 01:46:33;;;;;;;23.83;3.42;;;14.70;30.30;;;;;;5089153;28;19941;-65
2023/02/17 01:49:00;;;;;;;19.77;3.22;;;14.60;30.60;;;;;;5088520;28;20064;-65
2023/02/17 01:51:33;;;;;;;12.68;3.47;;;14.50;30.10;;;;;;5084299;28;20056;-64
2023/02/17 01:54:12;;;;;;;27.83;7.20;;;14.40;30.90;;;;;;5091485;28;20065;-63
2023/02/17 01:56:42;;;;;;;27.63;10.15;;;14.40;30.20;;;;;;5094756;28;20069;-64
2023/02/17 01:59:17;;;;;;;37.17;11.10;;;14.40;31.50;;;;;;5084479;28;20080;-63
2023/02/17 02:01:45;;;;;;;20.75;7.03;;;14.30;31.50;;;;;;5092558;28;20069;-64
2023/02/17 02:04:14;;;;;;;21.75;5.07;;;14.20;31.20;;;;;;5081026;28;20572;-65
2023/02/17 02:06:42;;;;;;;17.48;4.78;;;14.20;31.00;;;;;;5092009;28;20052;-64
2023/02/17 02:09:27;;;;;;;20.85;4.85;;;14.10;32.10;;;;;;5090945;28;20063;-66
2023/02/17 02:11:53;;;;;;;29.27;6.43;;;14.00;32.10;;;;;;5088850;28;20058;-63
2023/02/17 02:14:20;;;;;;;;;;;13.90;33.40;;;;;;5088035;28;20040;-66
2023/02/17 02:17:06;;;;;;;37.13;17.00;;;13.90;32.40;;;;;;5088569;28;19949;-67
2023/02/17 02:19:57;;;;;;;48.22;18.45;;;13.90;32.40;;;;;;5087756;28;20110;-66
2023/02/17 02:22:47;;;;;;;41.47;17.27;;;13.80;33.40;;;;;;5088836;28;20045;-64
2023/02/17 02:25:34;;;;;;;35.95;14.63;;;13.70;32.80;;;;;;5089232;28;20041;-65
2023/02/17 02:28:27;;;;;;;29.95;11.50;;;13.70;33.70;;;;;;5086759;28;20043;-66
2023/02/17 02:31:17;;;;;;;28.35;10.10;;;13.60;34.20;;;;;;5050522;28;20076;-63
2023/02/17 02:33:51;;;;;;;25.70;7.82;;;13.60;34.70;;;;;;5086112;28;20096;-66
2023/02/17 02:36:36;;;;;;;28.50;8.43;;;13.50;35.10;;;;;;5088094;28;20051;-64
2023/02/17 02:39:26;;;;;;;59.78;27.85;;;13.50;35.60;;;;;;5086950;28;20038;-65
2023/02/17 02:42:00;;;;;;;47.03;24.55;;;13.40;35.00;;;;;;5070723;28;20066;-65
2023/02/17 02:44:27;;;;;;;42.67;16.33;;;13.30;35.40;;;;;;5084274;28;20037;-64
2023/02/17 02:47:00;;;;;;;;;;;13.20;35.40;;;;;;5084075;28;21728;-66
2023/02/17 02:49:27;;;;;;;30.27;8.43;;;13.20;36.40;;;;;;5088963;28;19935;-64
2023/02/17 02:51:53;;;;;;;18.08;6.55;;;13.20;36.00;;;;;;5085105;28;20060;-64
2023/02/17 02:54:22;;;;;;;;;;;13.20;35.80;;;;;;5082661;28;20043;-67
2023/02/17 02:57:27;;;;;;;34.45;6.97;;;13.10;35.50;;;;;;5086855;28;19941;-64
2023/02/17 03:00:18;;;;;;;34.88;6.60;;;13.00;36.10;;;;;;5027341;28;20060;-62
2023/02/17 03:02:51;;;;;;;31.05;6.00;;;13.00;36.80;;;;;;5080202;28;20496;-62
2023/02/17 03:05:41;;;;;;;26.73;6.75;;;13.00;36.50;;;;;;5076388;28;20049;-63
2023/02/17 03:08:11;;;;;;;22.98;5.30;;;13.00;36.40;;;;;;5078732;28;20047;-63
2023/02/17 03:10:48;;;;;;;27.23;5.70;;;12.90;36.10;;;;;;5076009;28;20051;-63
2023/02/17 03:13:15;;;;;;;29.75;7.68;;;12.90;36.80;;;;;;5083769;28;20036;-64
2023/02/17 03:15:42;;;;;;;37.10;8.13;;;12.90;35.40;;;;;;5081998;28;20059;-64
2023/02/17 03:18:08;;;;;;;35.60;7.95;;;13.00;35.20;;;;;;5076402;28;20078;-63
2023/02/17 03:20:42;;;;;;;;;;;13.00;34.90;;;;;;5083972;28;20040;-64
2023/02/17 03:23:09;;;;;;;26.17;6.97;;;13.00;34.90;;;;;;5077537;28;20034;-64
2023/02/17 03:25:36;;;;;;;24.35;5.35;;;13.00;35.20;;;;;;5081722;28;20050;-63
2023/02/17 03:28:02;;;;;;;18.52;4.50;;;13.00;35.00;;;;;;5076304;28;20093;-63
2023/02/17 03:30:29;;;;;;;23.38;4.03;;;13.00;34.70;;;;;;5076343;28;20064;-64
2023/02/17 03:32:55;;;;;;;;;;;13.00;34.30;;;;;;5085576;28;20047;-64
2023/02/17 03:35:21;;;;;;;23.02;3.95;;;13.00;34.50;;;;;;5079265;28;20432;-64
2023/02/17 03:37:47;;;;;;;25.02;4.40;;;12.90;35.10;;;;;;5073637;28;20047;-63
2023/02/17 03:40:13;;;;;;;;;;;12.90;35.90;;;;;;5057333;28;20400;-63
2023/02/17 03:42:40;;;;;;;22.52;4.65;;;12.90;35.40;;;;;;5082020;28;19931;-63
2023/02/17 03:45:06;;;;;;;;;;;12.80;36.20;;;;;;5082448;28;20057;-63
2023/02/17 03:47:32;;;;;;;31.95;6.28;;;12.70;36.30;;;;;;5078647;28;19943;-63
2023/02/17 03:49:58;;;;;;;;;;;12.70;36.50;;;;;;5081921;28;20062;-64
2023/02/17 03:52:25;;;;;;;25.67;6.38;;;12.70;35.80;;;;;;5087230;28;19968;-64
2023/02/17 03:54:52;;;;;;;;;;;12.70;36.00;;;;;;5082510;28;20510;-64
2023/02/17 03:57:18;;;;;;;29.67;5.88;;;12.60;36.60;;;;;;5084443;28;19942;-64
2023/02/17 03:59:44;;;;;;;;;;;12.50;37.10;;;;;;5089036;28;20058;-64
2023/02/17 04:02:10;;;;;;;28.88;6.45;;;12.50;39.00;;;;;;5084269;28;19924;-64
2023/02/17 04:04:37;;;;;;;;;;;12.50;38.10;;;;;;5078932;28;20056;-64
2023/02/17 04:07:04;;;;;;;27.27;6.63;;;12.40;38.30;;;;;;5082428;28;19930;-64
2023/02/17 04:09:30;;;;;;;27.95;5.95;;;12.30;37.70;;;;;;5080351;28;20498;-63
2023/02/17 04:11:56;;;;;;;;;;;12.20;37.60;;;;;;5086260;28;20064;-63
2023/02/17 04:14:23;;;;;;;42.17;6.03;;;12.20;37.40;;;;;;5083486;28;20031;-64
2023/02/17 04:16:49;;;;;;;;;;;12.20;38.50;;;;;;5086837;28;20048;-65
2023/02/17 04:19:15;;;;;;;42.72;5.90;;;12.10;39.80;;;;;;5085629;28;19951;-65
2023/02/17 04:21:41;;;;;;;;;;;12.10;39.40;;;;;;5081850;28;20082;-62
2023/02/17 04:24:08;;;;;;;25.08;5.15;;;12.10;38.70;;;;;;5086107;28;19929;-64
2023/02/17 04:26:34;;;;;;;37.13;5.95;;;12.00;39.70;;;;;;5087887;28;20035;-64
2023/02/17 04:29:02;;;;;;;;;;;11.90;39.20;;;;;;5086307;28;20063;-63
2023/02/17 04:31:29;;;;;;;26.95;6.90;;;11.90;39.60;;;;;;5085201;28;19955;-64
2023/02/17 04:33:55;;;;;;;43.17;12.07;;;11.90;40.00;;;;;;5061835;28;20066;-65
2023/02/17 04:36:22;;;;;;;43.15;12.15;;;11.90;40.40;;;;;;5081485;28;20563;-68
2023/02/17 04:38:51;;;;;;;51.25;15.18;;;11.80;41.30;;;;;;5087809;28;20045;-64
2023/02/17 04:41:17;;;;;;;49.97;15.77;;;11.80;41.20;;;;;;5087371;28;20419;-65
2023/02/17 04:43:43;;;;;;;;;;;11.70;42.50;;;;;;5083849;28;20181;-64
2023/02/17 04:46:10;;;;;;;53.20;20.38;;;11.60;41.80;;;;;;5079778;28;20033;-65
2023/02/17 04:48:37;;;;;;;63.00;20.40;;;11.60;42.30;;;;;;5087880;28;21813;-64
2023/02/17 04:51:04;;;;;;;59.60;18.48;;;11.60;42.20;;;;;;5084218;28;20202;-65
2023/02/17 04:53:31;;;;;;;48.45;14.25;;;11.60;42.30;;;;;;5083391;28;20125;-64
2023/02/17 04:55:57;;;;;;;53.28;14.43;;;11.60;40.80;;;;;;5087505;28;20062;-65
2023/02/17 04:58:23;;;;;;;;;;;11.60;41.00;;;;;;5061841;28;20040;-64
2023/02/17 05:00:50;;;;;;;45.60;14.38;;;11.50;42.90;;;;;;5084714;28;19929;-63
2023/02/17 05:03:17;;;;;;;37.63;12.05;;;11.40;43.00;;;;;;5079620;28;20041;-65
2023/02/17 05:05:44;;;;;;;49.53;12.18;;;11.40;42.60;;;;;;5081809;28;20105;-65
2023/02/17 05:08:10;;;;;;;;;;;11.30;43.20;;;;;;5082699;28;20082;-63
2023/02/17 05:10:36;;;;;;;48.58;11.07;;;11.40;42.10;;;;;;5088208;28;19946;-66
2023/02/17 05:13:02;;;;;;;;;;;11.40;41.40;;;;;;5086400;28;20415;-64
2023/02/17 05:15:29;;;;;;;41.80;9.48;;;11.30;42.20;;;;;;5083834;28;19934;-65
2023/02/17 05:17:55;;;;;;;;;;;11.30;41.70;;;;;;5083294;28;20074;-66
2023/02/17 05:20:21;;;;;;;48.67;9.18;;;11.40;41.30;;;;;;5080759;28;20321;-67
2023/02/17 05:22:47;;;;;;;;;;;11.40;41.00;;;;;;5082846;28;20053;-66
2023/02/17 05:25:14;;;;;;;49.05;8.65;;;11.30;41.00;;;;;;5064420;28;19974;-65
2023/02/17 05:27:40;;;;;;;270.90;24.60;;;11.20;41.10;;;;;;5084306;28;20056;-66
2023/02/17 05:30:06;;;;;;;;;;;11.10;41.80;;;;;;5083583;28;20076;-67
2023/02/17 05:32:33;;;;;;;229.10;12.18;;;11.20;41.00;;;;;;5078228;28;19940;-62
2023/02/17 05:34:59;;;;;;;37.70;7.45;;;11.30;40.20;;;;;;5078493;28;20073;-62
2023/02/17 05:37:25;;;;;;;;;;;11.30;39.10;;;;;;5085118;28;20086;-64
2023/02/17 05:39:52;;;;;;;107.22;10.70;;;11.30;38.40;;;;;;5076953;28;20055;-65
2023/02/17 05:42:18;;;;;;;;;;;11.30;38.40;;;;;;5082996;28;20491;-62
2023/02/17 05:44:44;;;;;;;160.05;12.95;;;11.20;38.20;;;;;;5082040;28;19963;-65
2023/02/17 05:47:11;;;;;;;83.85;10.27;;;11.30;39.10;;;;;;5081912;28;20119;-66
2023/02/17 05:49:37;;;;;;;;;;;11.30;39.50;;;;;;5084645;28;20263;-65
2023/02/17 05:52:03;;;;;;;45.83;7.60;;;11.30;39.20;;;;;;5087224;28;19968;-66
2023/02/17 05:54:30;;;;;;;51.55;8.00;;;11.30;39.90;;;;;;5083442;28;20070;-65
2023/02/17 05:56:56;;;;;;;;;;;11.10;40.40;;;;;;5080577;28;20071;-65
2023/02/17 05:59:22;;;;;;;65.20;8.88;;;11.10;41.00;;;;;;5081726;28;19956;-67
2023/02/17 06:01:49;;;;;;;41.05;7.70;;;11.10;41.50;;;;;;5085871;28;20689;-66
2023/02/17 06:04:15;;;;;;;;;;;11.00;41.30;;;;;;5088546;28;20073;-67
2023/02/17 06:06:41;;;;;;;146.13;11.80;;;10.90;41.90;;;;;;5083949;28;20419;-66
2023/02/17 06:09:07;;;;;;;;;;;10.90;40.40;;;;;;5085211;28;20657;-67
2023/02/17 06:11:34;;;;;;;44.40;7.38;;;10.80;40.40;;;;;;5080321;28;20030;-67
2023/02/17 06:14:00;;;;;;;118.95;10.82;;;10.80;40.40;;;;;;5088669;28;20069;-65
2023/02/17 06:16:27;;;;;;;42.00;7.93;;;10.80;41.10;;;;;;5089222;28;20561;-66
2023/02/17 06:18:53;;;;;;;38.40;8.02;;;10.80;40.00;;;;;;5089269;28;20588;-66
2023/02/17 06:21:19;;;;;;;;;;;10.80;40.60;;;;;;5083675;28;20097;-65
2023/02/17 06:23:46;;;;;;;43.97;9.05;;;10.80;41.00;;;;;;5086387;28;20005;-66
2023/02/17 06:26:13;;;;;;;37.42;9.32;;;10.70;41.30;;;;;;5086888;28;20154;-65
2023/02/17 06:28:39;;;;;;;35.67;10.07;;;10.70;42.70;;;;;;5085078;28;20477;-65
2023/02/17 06:31:05;;;;;;;;;;;10.60;43.20;;;;;;5087262;28;20565;-66
2023/02/17 06:33:32;;;;;;;38.75;9.18;;;10.50;42.70;;;;;;5086145;28;19972;-66
2023/02/17 06:35:58;;;;;;;;;;;10.50;42.90;;;;;;5085056;28;20196;-65
2023/02/17 06:38:25;;;;;;;63.42;17.52;;;10.50;42.40;;;;;;5083008;28;19963;-66
2023/02/17 06:40:51;;;;;;;;;;;10.50;43.00;;;;;;5068302;28;20182;-64
2023/02/17 06:43:17;;;;;;;57.83;15.95;;;10.50;43.10;;;;;;5086499;28;19961;-64
2023/02/17 06:45:43;;;;;;;;;;;10.40;44.00;;;;;;5085423;28;20068;-65
2023/02/17 06:48:10;;;;;;;45.53;11.82;;;10.30;43.70;;;;;;5086113;28;19976;-68
2023/02/17 06:50:36;;;;;;;47.50;11.55;;;10.20;44.20;;;;;;5083308;28;20115;-66
2023/02/17 06:53:03;;;;;;;41.65;10.82;;;10.20;44.80;;;;;;5082321;28;20069;-65
2023/02/17 06:55:30;;;;;;;54.78;11.48;;;10.10;44.20;;;;;;5083804;28;20073;-66
2023/02/17 06:57:56;;;;;;;48.67;11.48;;;10.20;44.20;;;;;;5069668;28;20482;-65
2023/02/17 07:00:23;;;;;;;44.72;10.80;;;10.20;42.50;;;;;;5084414;28;20299;-65
2023/02/17 07:02:49;;;;;;;28.52;9.80;;;10.20;41.30;;;;;;5087892;28;20177;-65
2023/02/17 07:05:15;;;;;;;;;;;10.20;39.60;;;;;;5093386;28;20158;-65
2023/02/17 07:07:42;;;;;;;36.30;10.10;;;10.30;39.40;;;;;;5082950;28;20466;-66
2023/02/17 07:10:08;;;;;;;;;;;10.20;38.80;;;;;;5090469;28;20537;-67
2023/02/17 07:12:34;;;;;;;34.80;8.25;;;10.20;38.80;;;;;;5087404;28;20589;-64
2023/02/17 07:15:01;;;;;;;34.83;8.45;;;10.20;38.70;;;;;;5081062;28;20088;-66
2023/02/17 07:17:27;;;;;;;30.92;7.95;;;10.20;38.40;;;;;;5077775;28;20076;-64
2023/02/17 07:19:53;;;;;;;;;;;10.20;39.60;;;;;;5079269;28;20072;-65
2023/02/17 07:22:20;;;;;;;30.45;8.35;;;10.20;39.30;;;;;;5076294;28;19963;-65
2023/02/17 07:24:46;;;;;;;28.40;8.10;;;10.10;39.90;;;;;;5075285;28;20075;-65
2023/02/17 07:27:13;;;;;;;;;;;10.10;39.70;;;;;;5082799;28;20135;-66
2023/02/17 07:29:40;;;;;;;28.23;8.30;;;10.10;39.00;;;;;;5080134;28;19972;-64
2023/02/17 07:32:06;;;;;;;;;;;10.00;40.00;;;;;;5076652;28;20100;-66
2023/02/17 07:34:32;;;;;;;23.98;6.85;;;10.00;40.20;;;;;;5080674;28;19964;-65
2023/02/17 07:36:59;;;;;;;26.75;7.65;;;10.00;40.60;;;;;;5078210;28;20069;-65
2023/02/17 07:39:25;;;;;;;;;;;9.90;40.80;;;;;;5079349;28;20077;-66
2023/02/17 07:41:51;;;;;;;26.10;6.28;;;9.90;41.10;;;;;;5079931;28;19957;-66
2023/02/17 07:44:18;;;;;;;19.13;6.20;;;9.80;41.00;;;;;;5083040;28;20073;-65
2023/02/17 07:46:44;;;;;;;22.30;5.20;;;9.80;42.10;;;;;;5088900;28;20537;-65
2023/02/17 07:49:11;;;;;;;;;;;9.70;41.00;;;;;;5085182;28;20564;-65
2023/02/17 07:51:37;;;;;;;29.67;6.57;;;9.70;40.90;;;;;;5081832;28;19980;-66
2023/02/17 07:54:04;;;;;;;27.08;6.68;;;9.70;42.30;;;;;;5080873;28;20091;-65
2023/02/17 07:56:32;;;;;;;16.15;5.78;;;9.60;42.80;;;;;;5068631;28;20079;-66
2023/02/17 07:58:58;;;;;;;31.08;5.82;;;9.60;41.30;;;;;;5081063;28;20069;-65
2023/02/17 08:01:26;;;;;;;19.77;6.38;;;9.60;41.40;;;;;;5083685;28;20092;-65
2023/02/17 08:03:52;;;;;;;27.80;5.25;;;9.70;41.80;;;;;;5085095;28;20441;-65
2023/02/17 08:06:22;;;;;;;15.45;5.03;;;9.60;41.80;;;;;;5087352;28;20083;-66
2023/02/17 08:14:26;;;;;;;25.20;5.15;;;9.50;41.70;;;;;;5083573;28;20122;-66
2023/02/17 08:16:53;;;;;;;28.38;6.82;;;9.60;41.60;;;;;;5082520;28;20065;-65
2023/02/17 08:19:19;;;;;;;21.67;6.32;;;9.60;41.80;;;;;;5085204;28;20119;-66
2023/02/17 08:21:46;;;;;;;24.63;7.13;;;9.50;41.30;;;;;;5085056;28;20154;-63
2023/02/17 08:24:14;;;;;;;27.67;7.88;;;9.40;41.20;;;;;;5085680;28;20166;-65
2023/02/17 08:26:40;;;;;;;35.50;8.18;;;9.30;41.10;;;;;;5080126;28;20081;-66
2023/02/17 08:29:06;;;;;;;;;;;9.30;42.50;;;;;;5080476;28;20524;-65
2023/02/17 08:31:35;;;;;;;28.23;8.13;;;9.40;42.90;;;;;;5082610;28;19995;-65
2023/02/17 08:34:06;;;;;;;34.53;7.90;;;9.30;42.40;;;;;;5084772;28;20087;-65
2023/02/17 08:36:33;;;;;;;20.52;7.47;;;9.30;42.20;;;;;;5078287;28;20073;-65
2023/02/17 08:39:00;;;;;;;23.10;8.23;;;9.30;43.40;;;;;;5082100;28;20114;-64
2023/02/17 08:41:30;;;;;;;24.20;6.35;;;9.30;43.30;;;;;;5082290;28;20088;-66
2023/02/17 08:43:59;;;;;;;27.58;7.05;;;9.30;43.20;;;;;;5081448;28;20141;-65
2023/02/17 08:46:27;;;;;;;21.73;5.63;;;9.30;42.60;;;;;;5082908;28;20084;-67
2023/02/17 08:48:53;;;;;;;26.95;6.10;;;9.20;41.60;;;;;;5085790;28;20084;-66
2023/02/17 08:51:24;;;;;;;27.05;6.47;;;9.30;42.60;;;;;;5085899;28;20147;-66
2023/02/17 08:53:56;;;;;;;23.45;6.65;;;9.30;42.70;;;;;;5083805;28;20065;-66
2023/02/17 08:56:24;;;;;;;24.63;6.18;;;9.10;41.80;;;;;;5082063;28;20076;-64
2023/02/17 08:58:51;;;;;;;27.35;5.55;;;9.00;43.20;;;;;;5085185;28;20065;-64
2023/02/17 09:01:17;;;;;;;27.27;7.22;;;9.10;42.90;;;;;;5086646;28;20092;-62
2023/02/17 09:03:45;;;;;;;29.25;6.50;;;9.40;43.70;;;;;;5080065;28;20092;-62
2023/02/17 09:06:12;;;;;;;29.60;6.30;;;9.60;42.80;;;;;;5083071;28;20123;-63
2023/02/17 09:08:39;;;;;;;20.70;6.90;;;9.80;43.20;;;;;;5086082;28;20069;-64
2023/02/17 09:11:07;;;;;;;20.83;6.38;;;9.90;43.20;;;;;;5083024;28;20099;-63
2023/02/17 09:13:35;;;;;;;21.02;5.70;;;9.90;42.50;;;;;;5083697;28;20439;-63
2023/02/17 09:16:01;;;;;;;25.05;5.45;;;9.90;41.80;;;;;;5085565;28;20155;-62
2023/02/17 09:18:28;;;;;;;16.65;5.00;;;10.10;41.50;;;;;;5083093;28;20564;-63
2023/02/17 09:20:54;;;;;;;15.25;4.55;;;10.10;41.40;;;;;;5083781;28;20095;-62
2023/02/17 09:23:20;;;;;;;;;;;10.30;40.80;;;;;;5086513;28;20593;-62
2023/02/17 09:25:47;;;;;;;15.55;3.85;;;10.30;40.70;;;;;;5084960;28;19964;-63
2023/02/17 09:28:14;;;;;;;;;;;10.20;42.00;;;;;;5083502;28;20096;-64
2023/02/17 09:30:40;;;;;;;15.95;3.40;;;10.40;41.70;;;;;;5087818;28;19987;-63
2023/02/17 09:33:07;;;;;;;18.33;3.55;;;10.30;42.10;;;;;;5081889;28;20089;-62
2023/02/17 09:35:33;;;;;;;;;;;10.30;41.20;;;;;;5084475;28;20107;-62
2023/02/17 09:37:59;;;;;;;10.88;2.78;;;10.30;41.30;;;;;;5081295;28;20380;-62
2023/02/17 09:40:47;;;;;;;15.75;2.78;;;10.30;41.90;;;;;;5081593;28;20127;-62
2023/02/17 09:43:16;;;;;;;6.50;2.65;;;10.30;40.90;;;;;;5084602;28;20081;-62
2023/02/17 09:45:54;;;;;;;9.27;2.70;;;10.40;40.50;;;;;;5087815;28;20093;-64
2023/02/17 09:48:25;;;;;;;12.93;2.40;;;10.40;40.30;;;;;;5087392;28;20542;-64
2023/02/17 09:51:02;;;;;;;9.57;1.85;;;10.30;40.50;;;;;;5088667;28;20089;-64
2023/02/17 09:53:40;;;;;;;;;;;10.40;40.20;;;;;;5086524;28;20485;-61
2023/02/17 09:56:09;;;;;;;;;;;10.50;39.20;;;;;;5088799;28;20447;-62
2023/02/17 09:58:52;;;;;;;10.63;1.90;;;10.40;39.70;;;;;;5084891;28;20114;-62
2023/02/17 10:01:39;;;;;;;12.75;2.47;;;10.20;39.60;;;;;;5091056;28;20075;-61
2023/02/17 10:04:16;;;;;;;10.90;2.28;;;10.30;39.00;;;;;;5083098;28;20088;-62
2023/02/17 10:07:01;;;;;;;11.93;2.00;;;10.30;39.60;;;;;;5088287;28;20538;-62
2023/02/17 10:09:49;;;;;;;15.20;7.55;;;10.20;39.80;;;;;;5089121;28;20077;-62
2023/02/17 10:12:18;;;;;;;;;;;10.20;39.60;;;;;;5088561;28;20089;-63
2023/02/17 10:15:10;;;;;;;16.17;1.90;;;10.20;39.60;;;;;;5085583;28;19964;-62
2023/02/17 10:18:04;;;;;;;14.57;1.80;;;10.20;39.50;;;;;;5052136;28;20085;-62
2023/02/17 10:20:50;;;;;;;9.25;2.45;;;10.10;39.90;;;;;;5090484;28;20552;-62
2023/02/17 10:23:21;;;;;;;10.25;2.08;;;10.10;39.50;;;;;;5068827;28;20080;-62
2023/02/17 10:26:02;;;;;;;8.80;2.10;;;10.10;39.60;;;;;;5084876;28;20072;-63
2023/02/17 10:28:53;;;;;;;9.55;1.65;;;10.10;39.50;;;;;;5080717;28;20069;-65
2023/02/17 10:31:44;;;;;;;12.52;1.95;;;10.00;39.60;;;;;;5086028;28;20103;-63
2023/02/17 10:34:35;;;;;;;7.13;1.65;;;10.00;39.40;;;;;;5082258;28;20069;-63
2023/02/17 10:37:24;;;;;;;9.40;1.50;;;10.00;39.50;;;;;;5083963;28;20072;-63
2023/02/17 10:39:53;;;;;;;12.45;1.70;;;9.90;39.30;;;;;;5072043;28;20160;-65
2023/02/17 10:42:34;;;;;;;8.50;1.92;;;9.90;39.10;;;;;;5090479;28;20157;-64
2023/02/17 10:45:03;;;;;;;4.85;1.20;;;9.80;38.90;;;;;;5083336;28;20064;-62
2023/02/17 10:47:32;;;;;;;4.35;1.60;;;9.70;39.10;;;;;;5082202;28;20134;-62
2023/02/17 10:50:00;;;;;;;6.53;1.52;;;9.80;39.00;;;;;;5089056;28;20550;-61
2023/02/17 10:52:38;;;;;;;9.60;1.65;;;9.90;38.70;;;;;;5086205;28;20072;-61
2023/02/17 10:55:21;;;;;;;8.95;1.70;;;9.80;38.80;;;;;;5084635;28;20072;-62
2023/02/17 10:57:53;;;;;;;13.18;1.50;;;9.80;38.90;;;;;;5086482;28;20526;-63
2023/02/17 11:00:19;;;;;;;10.80;1.30;;;9.80;38.30;;;;;;5080651;28;20114;-62
2023/02/17 11:02:49;;;;;;;10.48;2.10;;;9.80;38.00;;;;;;5084516;28;20072;-62
2023/02/17 11:05:30;;;;;;;10.63;1.38;;;9.80;37.90;;;;;;5084806;28;20490;-62
2023/02/17 11:08:19;;;;;;;6.93;1.10;;;9.80;38.40;;;;;;5086306;28;20504;-62
2023/02/17 11:10:45;;;;;;;10.43;1.48;;;9.70;38.80;;;;;;5082075;28;20100;-64
2023/02/17 11:13:33;;;;;;;;;;;9.70;39.10;;;;;;5088528;28;20155;-62
2023/02/17 11:15:59;;;;;;;6.60;2.03;;;9.50;38.90;;;;;;5084646;28;20060;-62
2023/02/17 11:18:31;;;;;;;8.50;1.48;;;9.50;39.30;;;;;;5084262;28;20468;-63
2023/02/17 11:21:07;;;;;;;7.90;1.85;;;9.30;39.10;;;;;;5089454;28;20080;-62
2023/02/17 11:23:34;;;;;;;10.10;1.48;;;9.40;38.80;;;;;;5084800;28;20084;-60
2023/02/17 11:26:08;;;;;;;12.32;1.52;;;9.30;39.00;;;;;;5082875;28;20077;-62
2023/02/17 11:28:35;;;;;;;7.18;1.60;;;9.20;39.10;;;;;;5083614;28;20074;-62
2023/02/17 11:31:03;;;;;;;10.55;1.63;;;9.10;40.10;;;;;;5086050;28;20097;-62
2023/02/17 11:33:36;;;;;;;9.02;1.80;;;9.10;39.90;;;;;;5088844;28;20076;-64
2023/02/17 11:36:05;;;;;;;5.82;1.50;;;9.20;40.30;;;;;;5087150;28;20065;-63
2023/02/17 11:38:43;;;;;;;8.65;1.95;;;9.10;40.40;;;;;;5088331;28;20080;-62
2023/02/17 11:41:10;;;;;;;4.72;1.45;;;9.00;40.60;;;;;;5084198;28;20092;-63
2023/02/17 11:43:38;;;;;;;14.05;1.75;;;9.00;39.80;;;;;;5087329;28;20076;-61
2023/02/17 11:46:34;;;;;;;4.38;1.27;;;9.00;39.50;;;;;;5086199;28;20441;-63
2023/02/17 11:49:19;;;;;;;9.50;1.83;;;9.00;39.80;;;;;;5081993;28;20502;-64
2023/02/17 11:52:06;;;;;;;7.03;1.60;;;8.90;39.90;;;;;;5080211;28;20117;-61
2023/02/17 11:55:01;;;;;;;5.60;1.73;;;8.90;40.10;;;;;;5085277;28;20210;-62
2023/02/17 11:58:04;;;;;;;10.90;2.55;;;8.90;39.90;;;;;;5081902;28;20065;-63
2023/02/17 12:00:37;;;;;;;11.00;3.13;;;8.90;39.80;;;;;;5083339;28;20069;-62
2023/02/17 12:03:34;;;;;;;7.40;3.20;;;8.80;39.80;;;;;;5086213;28;20101;-62
2023/02/17 12:06:08;;;;;;;10.68;3.00;;;8.80;39.60;;;;;;5083978;28;20453;-63
2023/02/17 12:08:44;;;;;;;12.40;3.55;;;8.70;39.80;;;;;;5083936;28;20131;-64
2023/02/17 12:11:26;;;;;;;8.15;4.07;;;8.70;39.90;;;;;;5083030;28;20092;-63
2023/02/17 12:14:20;;;;;;;18.23;4.40;;;8.70;39.60;;;;;;5084709;28;20072;-63
2023/02/17 12:16:59;;;;;;;11.93;3.90;;;8.70;39.30;;;;;;5086541;28;20552;-62
2023/02/17 12:19:31;;;;;;;10.15;3.83;;;8.70;39.40;;;;;;5082057;28;20990;-62
2023/02/17 12:22:34;;;;;;;18.73;3.40;;;8.60;39.70;;;;;;5079934;28;20073;-62
2023/02/17 12:25:29;;;;;;;13.90;3.10;;;8.60;39.50;;;;;;5040478;28;20103;-64
2023/02/17 12:28:40;;;;;;;15.02;3.00;;;8.60;39.50;;;;;;5080580;28;20084;-62
2023/02/17 12:31:20;;;;;;;9.30;2.25;;;8.60;39.70;;;;;;5020465;28;20502;-61
2023/02/17 12:33:59;;;;;;;8.25;2.67;;;8.50;39.70;;;;;;5016767;28;20097;-62
2023/02/17 12:36:35;;;;;;;6.28;1.60;;;8.60;40.00;;;;;;5025220;28;20140;-61
2023/02/17 12:39:27;;;;;;;3.05;1.50;;;8.60;40.00;;;;;;5022301;28;20077;-65
2023/02/17 12:42:02;;;;;;;7.10;1.52;;;8.70;39.80;;;;;;5028089;28;20082;-63
2023/02/17 12:44:33;;;;;;;5.32;1.50;;;8.70;39.50;;;;;;5025174;28;20082;-62
2023/02/17 12:47:14;;;;;;;6.63;1.60;;;8.70;39.50;;;;;;5020462;28;20164;-61
2023/02/17 12:50:24;;;;;;;10.68;1.58;;;8.70;39.50;;;;;;5020678;28;20086;-61
2023/02/17 12:52:54;;;;;;;7.80;1.25;;;8.60;39.80;;;;;;5022313;28;20479;-64
2023/02/17 12:55:25;;;;;;;7.43;1.25;;;8.50;39.50;;;;;;5018725;28;20108;-62
2023/02/17 12:57:57;;;;;;;2.95;1.10;;;8.60;39.90;;;;;;5017260;28;20412;-62
2023/02/17 13:00:30;;;;;;;6.05;1.35;;;8.60;40.00;;;;;;5020873;28;20081;-62
2023/02/17 13:03:01;;;;;;;6.28;1.38;;;8.60;39.80;;;;;;5076665;28;20162;-63
2023/02/17 13:05:42;;;;;;;8.82;1.30;;;8.60;40.50;;;;;;5079119;28;20077;-63
2023/02/17 13:08:16;;;;;;;68.40;4.57;;;8.60;41.00;;;;;;5083467;28;20127;-63
2023/02/17 13:10:42;;;;;;;7.13;1.45;;;8.60;40.90;;;;;;5085669;28;20130;-64
2023/02/17 13:13:32;;;;;;;4.97;1.52;;;8.50;41.30;;;;;;5085554;28;20460;-62
2023/02/17 13:16:05;;;;;;;5.80;1.10;;;8.50;41.60;;;;;;5079659;28;20096;-62
2023/02/17 13:18:37;;;;;;;11.18;1.50;;;8.50;42.20;;;;;;5083500;28;20104;-62
2023/02/17 13:21:23;;;;;;;10.75;1.70;;;8.50;42.90;;;;;;5084572;28;20593;-62